sensor_id;sensor_type;location;lat;lon;timestamp;temperature;humidity
2783;DHT22;1399;47.072;15.452;2024-03-23T00:55:40;14.60;49.00
2783;DHT22;1399;47.072;15.452;2024-03-23T00:58:06;14.60;49.10
2783;DHT22;1399;47.072;15.452;2024-03-23T01:00:32;14.60;49.10
2783;DHT22;1399;47.072;15.452;2024-03-23T01:02:58;14.60;49.20
2783;DHT22;1399;47.072;15.452;2024-03-23T01:05:24;14.60;49.30
2783;DHT22;1399;47.072;15.452;2024-03-23T01:07:49;14.50;49.20
2783;DHT22;1399;47.072;15.452;2024-03-23T01:12:59;14.50;49.30
2783;DHT22;1399;47.072;15.452;2024-03-23T01:15:25;14.50;49.40
2783;DHT22;1399;47.072;15.452;2024-03-23T01:17:51;14.50;49.50
2783;DHT22;1399;47.072;15.452;2024-03-23T01:20:16;14.50;49.50
2783;DHT22;1399;47.072;15.452;2024-03-23T01:22:42;14.40;49.40
2783;DHT22;1399;47.072;15.452;2024-03-23T01:25:08;14.40;49.50
2783;DHT22;1399;47.072;15.452;2024-03-23T01:27:34;14.40;49.60
2783;DHT22;1399;47.072;15.452;2024-03-23T01:30:00;14.40;49.60
2783;DHT22;1399;47.072;15.452;2024-03-23T01:32:25;14.40;49.60
2783;DHT22;1399;47.072;15.452;2024-03-23T01:34:51;14.40;49.60
2783;DHT22;1399;47.072;15.452;2024-03-23T01:37:17;14.40;49.60
2783;DHT22;1399;47.072;15.452;2024-03-23T01:39:43;14.40;49.70
2783;DHT22;1399;47.072;15.452;2024-03-23T01:42:08;14.40;49.70
2783;DHT22;1399;47.072;15.452;2024-03-23T01:44:34;14.30;49.70
2783;DHT22;1399;47.072;15.452;2024-03-23T01:47:00;14.30;49.80
2783;DHT22;1399;47.072;15.452;2024-03-23T01:49:26;14.30;49.80
2783;DHT22;1399;47.072;15.452;2024-03-23T01:51:52;14.30;49.90
2783;DHT22;1399;47.072;15.452;2024-03-23T01:54:17;14.30;50.00
2783;DHT22;1399;47.072;15.452;2024-03-23T01:56:44;14.30;50.00
2783;DHT22;1399;47.072;15.452;2024-03-23T01:59:09;14.20;50.00
2783;DHT22;1399;47.072;15.452;2024-03-23T02:01:36;14.20;50.00
2783;DHT22;1399;47.072;15.452;2024-03-23T02:04:02;14.20;50.00
2783;DHT22;1399;47.072;15.452;2024-03-23T02:06:28;14.20;50.00
2783;DHT22;1399;47.072;15.452;2024-03-23T02:08:57;14.10;49.90
2783;DHT22;1399;47.072;15.452;2024-03-23T02:11:23;14.20;50.00
2783;DHT22;1399;47.072;15.452;2024-03-23T02:13:49;14.10;50.00
2783;DHT22;1399;47.072;15.452;2024-03-23T02:16:15;14.10;50.10
2783;DHT22;1399;47.072;15.452;2024-03-23T02:18:40;14.10;50.10
2783;DHT22;1399;47.072;15.452;2024-03-23T02:21:06;14.10;50.20
2783;DHT22;1399;47.072;15.452;2024-03-23T02:23:32;14.10;50.30
2783;DHT22;1399;47.072;15.452;2024-03-23T02:25:58;14.00;50.20
2783;DHT22;1399;47.072;15.452;2024-03-23T02:28:23;14.00;50.30
2783;DHT22;1399;47.072;15.452;2024-03-23T02:30:49;14.00;50.30
2783;DHT22;1399;47.072;15.452;2024-03-23T02:33:15;14.00;50.40
2783;DHT22;1399;47.072;15.452;2024-03-23T02:35:42;14.00;50.40
2783;DHT22;1399;47.072;15.452;2024-03-23T02:38:08;14.00;50.30
2783;DHT22;1399;47.072;15.452;2024-03-23T02:40:34;14.00;50.30
2783;DHT22;1399;47.072;15.452;2024-03-23T02:42:59;13.90;50.30
2783;DHT22;1399;47.072;15.452;2024-03-23T02:45:25;13.90;50.20
2783;DHT22;1399;47.072;15.452;2024-03-23T02:47:51;13.90;50.20
2783;DHT22;1399;47.072;15.452;2024-03-23T02:50:18;13.90;50.30
2783;DHT22;1399;47.072;15.452;2024-03-23T02:52:44;13.90;50.20
2783;DHT22;1399;47.072;15.452;2024-03-23T02:55:10;13.90;50.20
2783;DHT22;1399;47.072;15.452;2024-03-23T02:57:36;13.90;50.30
2783;DHT22;1399;47.072;15.452;2024-03-23T03:00:02;13.90;50.30
2783;DHT22;1399;47.072;15.452;2024-03-23T03:02:28;13.90;50.30
2783;DHT22;1399;47.072;15.452;2024-03-23T03:04:54;13.90;50.30
2783;DHT22;1399;47.072;15.452;2024-03-23T03:07:20;13.80;50.10
2783;DHT22;1399;47.072;15.452;2024-03-23T03:09:46;13.80;50.20
2783;DHT22;1399;47.072;15.452;2024-03-23T03:12:11;13.80;50.20
2783;DHT22;1399;47.072;15.452;2024-03-23T03:14:37;13.80;50.20
2783;DHT22;1399;47.072;15.452;2024-03-23T03:17:03;13.80;50.20
2783;DHT22;1399;47.072;15.452;2024-03-23T03:19:29;13.80;50.30
2783;DHT22;1399;47.072;15.452;2024-03-23T03:21:55;13.70;50.30
2783;DHT22;1399;47.072;15.452;2024-03-23T03:24:21;13.70;50.30
2783;DHT22;1399;47.072;15.452;2024-03-23T03:26:47;13.70;50.30
2783;DHT22;1399;47.072;15.452;2024-03-23T03:29:12;13.70;50.30
2783;DHT22;1399;47.072;15.452;2024-03-23T03:31:39;13.70;50.30
2783;DHT22;1399;47.072;15.452;2024-03-23T03:34:05;13.70;50.40
2783;DHT22;1399;47.072;15.452;2024-03-23T03:36:31;13.60;50.30
2783;DHT22;1399;47.072;15.452;2024-03-23T03:38:56;13.60;50.30
2783;DHT22;1399;47.072;15.452;2024-03-23T03:41:22;13.60;50.40
2783;DHT22;1399;47.072;15.452;2024-03-23T03:43:48;13.60;50.40
2783;DHT22;1399;47.072;15.452;2024-03-23T03:46:14;13.60;50.40
2783;DHT22;1399;47.072;15.452;2024-03-23T03:48:39;13.50;50.40
2783;DHT22;1399;47.072;15.452;2024-03-23T03:51:05;13.50;50.40
2783;DHT22;1399;47.072;15.452;2024-03-23T03:53:31;13.50;50.40
2783;DHT22;1399;47.072;15.452;2024-03-23T03:56:00;13.50;50.40
2783;DHT22;1399;47.072;15.452;2024-03-23T03:58:26;13.50;50.40
2783;DHT22;1399;47.072;15.452;2024-03-23T04:00:52;13.50;50.40
2783;DHT22;1399;47.072;15.452;2024-03-23T04:03:18;13.50;50.40
2783;DHT22;1399;47.072;15.452;2024-03-23T04:05:53;13.50;50.40
2783;DHT22;1399;47.072;15.452;2024-03-23T04:08:20;13.50;50.40
2783;DHT22;1399;47.072;15.452;2024-03-23T04:10:46;13.50;50.40
2783;DHT22;1399;47.072;15.452;2024-03-23T04:13:13;13.50;50.30
2783;DHT22;1399;47.072;15.452;2024-03-23T04:15:39;13.50;50.30
2783;DHT22;1399;47.072;15.452;2024-03-23T04:18:05;13.50;50.30
2783;DHT22;1399;47.072;15.452;2024-03-23T04:20:31;13.40;50.30
2783;DHT22;1399;47.072;15.452;2024-03-23T04:23:00;13.40;50.20
2783;DHT22;1399;47.072;15.452;2024-03-23T04:25:26;13.40;50.20
2783;DHT22;1399;47.072;15.452;2024-03-23T04:27:52;13.40;50.20
2783;DHT22;1399;47.072;15.452;2024-03-23T04:30:18;13.40;50.30
2783;DHT22;1399;47.072;15.452;2024-03-23T04:32:44;13.40;50.20
2783;DHT22;1399;47.072;15.452;2024-03-23T04:35:10;13.40;50.20
2783;DHT22;1399;47.072;15.452;2024-03-23T04:37:39;13.40;50.80
2783;DHT22;1399;47.072;15.452;2024-03-23T04:40:08;13.40;50.10
2783;DHT22;1399;47.072;15.452;2024-03-23T04:42:34;13.40;50.10
2783;DHT22;1399;47.072;15.452;2024-03-23T04:45:00;13.30;50.10
2783;DHT22;1399;47.072;15.452;2024-03-23T04:47:26;13.30;50.10
2783;DHT22;1399;47.072;15.452;2024-03-23T04:49:52;13.30;50.20
2783;DHT22;1399;47.072;15.452;2024-03-23T04:52:18;13.30;50.20
2783;DHT22;1399;47.072;15.452;2024-03-23T04:54:44;13.30;50.20
2783;DHT22;1399;47.072;15.452;2024-03-23T04:57:11;13.30;50.20
2783;DHT22;1399;47.072;15.452;2024-03-23T04:59:37;13.30;50.20
2783;DHT22;1399;47.072;15.452;2024-03-23T05:02:02;13.30;50.20
2783;DHT22;1399;47.072;15.452;2024-03-23T05:04:28;13.30;50.20
2783;DHT22;1399;47.072;15.452;2024-03-23T05:06:54;13.30;50.20
2783;DHT22;1399;47.072;15.452;2024-03-23T05:09:20;13.30;50.20
2783;DHT22;1399;47.072;15.452;2024-03-23T05:11:46;13.30;50.20
2783;DHT22;1399;47.072;15.452;2024-03-23T05:14:13;13.30;50.20
2783;DHT22;1399;47.072;15.452;2024-03-23T05:16:39;13.30;50.20
2783;DHT22;1399;47.072;15.452;2024-03-23T05:19:05;13.30;50.20
2783;DHT22;1399;47.072;15.452;2024-03-23T05:21:30;13.30;50.20
2783;DHT22;1399;47.072;15.452;2024-03-23T05:23:56;13.30;50.10
2783;DHT22;1399;47.072;15.452;2024-03-23T05:26:22;13.40;50.20
2783;DHT22;1399;47.072;15.452;2024-03-23T05:28:48;13.40;50.20
2783;DHT22;1399;47.072;15.452;2024-03-23T05:31:27;13.40;50.10
2783;DHT22;1399;47.072;15.452;2024-03-23T05:33:53;13.40;50.20
2783;DHT22;1399;47.072;15.452;2024-03-23T05:36:19;13.40;50.10
2783;DHT22;1399;47.072;15.452;2024-03-23T05:38:44;13.40;50.10
2783;DHT22;1399;47.072;15.452;2024-03-23T05:41:10;13.40;50.10
2783;DHT22;1399;47.072;15.452;2024-03-23T05:43:36;13.40;50.10
2783;DHT22;1399;47.072;15.452;2024-03-23T05:46:02;13.50;50.10
2783;DHT22;1399;47.072;15.452;2024-03-23T05:48:28;13.50;50.10
2783;DHT22;1399;47.072;15.452;2024-03-23T05:50:56;13.50;50.10
2783;DHT22;1399;47.072;15.452;2024-03-23T05:53:22;13.60;50.10
2783;DHT22;1399;47.072;15.452;2024-03-23T05:55:48;13.60;50.10
2783;DHT22;1399;47.072;15.452;2024-03-23T05:58:17;13.60;50.00
2783;DHT22;1399;47.072;15.452;2024-03-23T06:00:44;13.60;50.00
2783;DHT22;1399;47.072;15.452;2024-03-23T06:03:10;13.70;50.10
2783;DHT22;1399;47.072;15.452;2024-03-23T06:05:37;13.70;50.10
2783;DHT22;1399;47.072;15.452;2024-03-23T06:08:03;13.70;50.10
2783;DHT22;1399;47.072;15.452;2024-03-23T06:10:29;13.70;50.00
2783;DHT22;1399;47.072;15.452;2024-03-23T06:12:55;13.80;50.00
2783;DHT22;1399;47.072;15.452;2024-03-23T06:15:21;13.80;50.00
2783;DHT22;1399;47.072;15.452;2024-03-23T06:17:48;13.90;50.00
2783;DHT22;1399;47.072;15.452;2024-03-23T06:20:14;13.90;49.90
2783;DHT22;1399;47.072;15.452;2024-03-23T06:22:40;14.00;49.90
2783;DHT22;1399;47.072;15.452;2024-03-23T06:25:07;14.00;49.80
2783;DHT22;1399;47.072;15.452;2024-03-23T06:27:33;14.10;49.80
2783;DHT22;1399;47.072;15.452;2024-03-23T06:30:00;14.10;49.80
2783;DHT22;1399;47.072;15.452;2024-03-23T06:32:25;14.10;49.70
2783;DHT22;1399;47.072;15.452;2024-03-23T06:34:51;14.20;49.80
2783;DHT22;1399;47.072;15.452;2024-03-23T06:37:17;14.30;49.90
2783;DHT22;1399;47.072;15.452;2024-03-23T06:39:46;14.30;49.80
2783;DHT22;1399;47.072;15.452;2024-03-23T06:42:11;14.30;49.70
2783;DHT22;1399;47.072;15.452;2024-03-23T06:44:37;14.30;49.60
2783;DHT22;1399;47.072;15.452;2024-03-23T06:47:03;14.40;49.70
2783;DHT22;1399;47.072;15.452;2024-03-23T06:49:29;14.40;49.70
2783;DHT22;1399;47.072;15.452;2024-03-23T06:51:55;14.40;49.70
2783;DHT22;1399;47.072;15.452;2024-03-23T06:54:20;14.40;49.70
2783;DHT22;1399;47.072;15.452;2024-03-23T06:56:49;14.50;49.70
2783;DHT22;1399;47.072;15.452;2024-03-23T06:59:14;14.50;49.70
2783;DHT22;1399;47.072;15.452;2024-03-23T07:01:40;14.50;49.70
2783;DHT22;1399;47.072;15.452;2024-03-23T07:04:07;14.50;49.70
2783;DHT22;1399;47.072;15.452;2024-03-23T07:06:33;14.50;49.70
2783;DHT22;1399;47.072;15.452;2024-03-23T07:08:59;14.50;49.70
2783;DHT22;1399;47.072;15.452;2024-03-23T07:11:25;14.60;49.70
2783;DHT22;1399;47.072;15.452;2024-03-23T07:13:52;14.60;49.50
2783;DHT22;1399;47.072;15.452;2024-03-23T07:16:20;14.60;49.50
2783;DHT22;1399;47.072;15.452;2024-03-23T07:18:46;14.60;49.50
2783;DHT22;1399;47.072;15.452;2024-03-23T07:21:11;14.70;49.60
2783;DHT22;1399;47.072;15.452;2024-03-23T07:23:37;14.60;49.50
2783;DHT22;1399;47.072;15.452;2024-03-23T07:26:05;14.70;49.50
2783;DHT22;1399;47.072;15.452;2024-03-23T07:28:33;14.70;49.40
2783;DHT22;1399;47.072;15.452;2024-03-23T07:31:12;14.80;49.40
2783;DHT22;1399;47.072;15.452;2024-03-23T07:33:44;14.80;49.30
2783;DHT22;1399;47.072;15.452;2024-03-23T07:36:10;14.80;49.30
2783;DHT22;1399;47.072;15.452;2024-03-23T07:38:36;14.90;49.30
2783;DHT22;1399;47.072;15.452;2024-03-23T07:41:06;14.90;49.30
2783;DHT22;1399;47.072;15.452;2024-03-23T07:43:32;14.90;49.20
2783;DHT22;1399;47.072;15.452;2024-03-23T07:45:59;15.00;49.20
2783;DHT22;1399;47.072;15.452;2024-03-23T07:48:25;15.00;49.10
2783;DHT22;1399;47.072;15.452;2024-03-23T07:51:02;15.00;49.00
2783;DHT22;1399;47.072;15.452;2024-03-23T07:53:29;15.10;49.00
2783;DHT22;1399;47.072;15.452;2024-03-23T07:56:02;15.10;48.90
2783;DHT22;1399;47.072;15.452;2024-03-23T07:58:28;15.20;48.90
2783;DHT22;1399;47.072;15.452;2024-03-23T08:00:55;15.20;48.80
2783;DHT22;1399;47.072;15.452;2024-03-23T08:03:21;15.30;48.90
2783;DHT22;1399;47.072;15.452;2024-03-23T08:05:47;15.30;48.90
2783;DHT22;1399;47.072;15.452;2024-03-23T08:08:13;15.40;49.00
2783;DHT22;1399;47.072;15.452;2024-03-23T08:10:51;15.50;48.90
2783;DHT22;1399;47.072;15.452;2024-03-23T08:13:18;15.50;48.80
2783;DHT22;1399;47.072;15.452;2024-03-23T08:15:44;15.50;48.70
2783;DHT22;1399;47.072;15.452;2024-03-23T08:18:11;15.60;48.60
2783;DHT22;1399;47.072;15.452;2024-03-23T08:20:37;15.60;48.60
2783;DHT22;1399;47.072;15.452;2024-03-23T08:23:04;15.70;48.70
2783;DHT22;1399;47.072;15.452;2024-03-23T08:25:34;15.80;48.70
2783;DHT22;1399;47.072;15.452;2024-03-23T08:28:00;15.80;48.60
2783;DHT22;1399;47.072;15.452;2024-03-23T08:30:28;15.90;48.50
2783;DHT22;1399;47.072;15.452;2024-03-23T08:32:54;16.00;48.40
2783;DHT22;1399;47.072;15.452;2024-03-23T08:35:20;16.00;48.30
2783;DHT22;1399;47.072;15.452;2024-03-23T08:37:45;16.10;48.20
2783;DHT22;1399;47.072;15.452;2024-03-23T08:40:12;16.20;48.20
2783;DHT22;1399;47.072;15.452;2024-03-23T08:42:38;16.20;48.10
2783;DHT22;1399;47.072;15.452;2024-03-23T08:45:04;16.30;48.10
2783;DHT22;1399;47.072;15.452;2024-03-23T08:47:30;16.30;48.10
2783;DHT22;1399;47.072;15.452;2024-03-23T08:50:00;16.30;48.10
2783;DHT22;1399;47.072;15.452;2024-03-23T08:52:25;16.30;48.10
2783;DHT22;1399;47.072;15.452;2024-03-23T08:54:54;16.30;48.20
2783;DHT22;1399;47.072;15.452;2024-03-23T08:57:22;16.20;48.20
2783;DHT22;1399;47.072;15.452;2024-03-23T08:59:48;16.30;48.40
2783;DHT22;1399;47.072;15.452;2024-03-23T09:02:13;16.20;48.40
2783;DHT22;1399;47.072;15.452;2024-03-23T09:04:39;16.20;48.50
2783;DHT22;1399;47.072;15.452;2024-03-23T09:07:05;16.20;48.70
2783;DHT22;1399;47.072;15.452;2024-03-23T09:09:31;16.20;48.80
2783;DHT22;1399;47.072;15.452;2024-03-23T09:11:56;16.20;49.00
2783;DHT22;1399;47.072;15.452;2024-03-23T09:14:22;16.20;49.00
2783;DHT22;1399;47.072;15.452;2024-03-23T09:16:51;16.30;49.10
2783;DHT22;1399;47.072;15.452;2024-03-23T09:19:20;16.30;49.10
2783;DHT22;1399;47.072;15.452;2024-03-23T09:21:46;16.20;49.00
2783;DHT22;1399;47.072;15.452;2024-03-23T09:24:11;16.30;49.10
2783;DHT22;1399;47.072;15.452;2024-03-23T09:26:37;16.30;49.20
2783;DHT22;1399;47.072;15.452;2024-03-23T09:29:03;16.30;49.20
2783;DHT22;1399;47.072;15.452;2024-03-23T09:31:29;16.30;49.20
2783;DHT22;1399;47.072;15.452;2024-03-23T09:33:58;16.30;49.30
2783;DHT22;1399;47.072;15.452;2024-03-23T09:36:23;16.30;49.20
2783;DHT22;1399;47.072;15.452;2024-03-23T09:38:49;16.40;49.30
2783;DHT22;1399;47.072;15.452;2024-03-23T09:41:15;16.50;49.20
2783;DHT22;1399;47.072;15.452;2024-03-23T09:43:41;16.50;49.30
2783;DHT22;1399;47.072;15.452;2024-03-23T09:46:07;16.60;48.90
2783;DHT22;1399;47.072;15.452;2024-03-23T09:48:33;16.70;48.90
2783;DHT22;1399;47.072;15.452;2024-03-23T09:50:59;16.80;48.80
2783;DHT22;1399;47.072;15.452;2024-03-23T09:53:25;16.90;48.70
2783;DHT22;1399;47.072;15.452;2024-03-23T09:55:51;16.90;48.60
2783;DHT22;1399;47.072;15.452;2024-03-23T09:58:17;17.00;48.60
2783;DHT22;1399;47.072;15.452;2024-03-23T10:00:44;17.00;48.70
2783;DHT22;1399;47.072;15.452;2024-03-23T10:03:10;17.00;48.70
2783;DHT22;1399;47.072;15.452;2024-03-23T10:05:37;17.10;48.90
2783;DHT22;1399;47.072;15.452;2024-03-23T10:10:42;17.10;49.20
2783;DHT22;1399;47.072;15.452;2024-03-23T10:13:08;17.20;49.40
2783;DHT22;1399;47.072;15.452;2024-03-23T10:15:35;17.20;49.30
2783;DHT22;1399;47.072;15.452;2024-03-23T10:18:20;17.20;49.40
2783;DHT22;1399;47.072;15.452;2024-03-23T10:23:33;17.40;49.50
2783;DHT22;1399;47.072;15.452;2024-03-23T10:26:16;17.40;49.40
2783;DHT22;1399;47.072;15.452;2024-03-23T10:28:54;17.40;49.30
2783;DHT22;1399;47.072;15.452;2024-03-23T10:31:25;17.40;49.20
2783;DHT22;1399;47.072;15.452;2024-03-23T10:33:53;17.40;49.10
2783;DHT22;1399;47.072;15.452;2024-03-23T10:36:21;17.40;49.20
2783;DHT22;1399;47.072;15.452;2024-03-23T10:38:48;17.50;49.60
2783;DHT22;1399;47.072;15.452;2024-03-23T10:41:14;17.40;49.30
2783;DHT22;1399;47.072;15.452;2024-03-23T10:43:40;17.50;49.40
2783;DHT22;1399;47.072;15.452;2024-03-23T10:46:08;17.50;49.40
2783;DHT22;1399;47.072;15.452;2024-03-23T10:48:34;17.50;49.30
2783;DHT22;1399;47.072;15.452;2024-03-23T10:51:01;17.50;49.30
2783;DHT22;1399;47.072;15.452;2024-03-23T10:53:27;17.50;49.40
2783;DHT22;1399;47.072;15.452;2024-03-23T10:55:55;17.50;49.50
2783;DHT22;1399;47.072;15.452;2024-03-23T10:58:38;17.40;49.40
2783;DHT22;1399;47.072;15.452;2024-03-23T11:01:04;17.50;49.50
2783;DHT22;1399;47.072;15.452;2024-03-23T11:05:59;17.50;49.60
2783;DHT22;1399;47.072;15.452;2024-03-23T11:08:36;17.50;49.60
2783;DHT22;1399;47.072;15.452;2024-03-23T11:11:22;17.40;49.50
2783;DHT22;1399;47.072;15.452;2024-03-23T11:13:53;17.50;49.60
2783;DHT22;1399;47.072;15.452;2024-03-23T11:16:23;17.40;49.40
2783;DHT22;1399;47.072;15.452;2024-03-23T11:18:51;17.50;49.60
2783;DHT22;1399;47.072;15.452;2024-03-23T11:21:54;17.40;49.60
2783;DHT22;1399;47.072;15.452;2024-03-23T11:24:21;17.40;49.60
2783;DHT22;1399;47.072;15.452;2024-03-23T11:26:48;17.40;49.80
2783;DHT22;1399;47.072;15.452;2024-03-23T11:29:16;17.40;49.90
2783;DHT22;1399;47.072;15.452;2024-03-23T11:31:48;17.40;49.90
2783;DHT22;1399;47.072;15.452;2024-03-23T11:34:20;17.40;50.00
2783;DHT22;1399;47.072;15.452;2024-03-23T11:36:46;17.40;50.00
2783;DHT22;1399;47.072;15.452;2024-03-23T11:39:17;17.50;50.20
2783;DHT22;1399;47.072;15.452;2024-03-23T11:44:20;17.50;50.20
2783;DHT22;1399;47.072;15.452;2024-03-23T11:46:46;17.50;50.50
2783;DHT22;1399;47.072;15.452;2024-03-23T11:49:28;17.50;50.20
2783;DHT22;1399;47.072;15.452;2024-03-23T11:51:56;17.50;50.30
2783;DHT22;1399;47.072;15.452;2024-03-23T11:54:23;17.50;50.30
2783;DHT22;1399;47.072;15.452;2024-03-23T11:57:01;17.50;50.30
2783;DHT22;1399;47.072;15.452;2024-03-23T11:59:41;17.50;50.50
2783;DHT22;1399;47.072;15.452;2024-03-23T12:02:08;17.60;50.40
2783;DHT22;1399;47.072;15.452;2024-03-23T12:04:35;17.60;50.40
2783;DHT22;1399;47.072;15.452;2024-03-23T12:07:17;17.60;50.40
2783;DHT22;1399;47.072;15.452;2024-03-23T12:10:03;17.60;50.50
2783;DHT22;1399;47.072;15.452;2024-03-23T12:12:29;17.60;50.50
2783;DHT22;1399;47.072;15.452;2024-03-23T12:15:03;17.60;50.70
2783;DHT22;1399;47.072;15.452;2024-03-23T12:17:29;17.60;50.70
2783;DHT22;1399;47.072;15.452;2024-03-23T12:19:55;17.60;50.80
2783;DHT22;1399;47.072;15.452;2024-03-23T12:22:21;17.60;51.00
2783;DHT22;1399;47.072;15.452;2024-03-23T12:24:48;17.60;51.00
2783;DHT22;1399;47.072;15.452;2024-03-23T12:27:13;17.60;51.10
2783;DHT22;1399;47.072;15.452;2024-03-23T12:29:40;17.60;51.00
2783;DHT22;1399;47.072;15.452;2024-03-23T12:32:08;17.60;51.00
2783;DHT22;1399;47.072;15.452;2024-03-23T12:34:33;17.60;50.90
2783;DHT22;1399;47.072;15.452;2024-03-23T12:36:59;17.60;50.90
2783;DHT22;1399;47.072;15.452;2024-03-23T12:39:25;17.60;50.90
2783;DHT22;1399;47.072;15.452;2024-03-23T12:41:50;17.70;50.90
2783;DHT22;1399;47.072;15.452;2024-03-23T12:44:18;17.60;50.90
2783;DHT22;1399;47.072;15.452;2024-03-23T12:46:44;17.70;51.00
2783;DHT22;1399;47.072;15.452;2024-03-23T12:49:10;17.70;50.90
2783;DHT22;1399;47.072;15.452;2024-03-23T12:51:37;17.70;50.80
2783;DHT22;1399;47.072;15.452;2024-03-23T12:54:03;17.60;50.70
2783;DHT22;1399;47.072;15.452;2024-03-23T12:56:29;17.70;50.90
2783;DHT22;1399;47.072;15.452;2024-03-23T12:58:55;17.70;50.90
2783;DHT22;1399;47.072;15.452;2024-03-23T13:01:23;17.70;50.90
2783;DHT22;1399;47.072;15.452;2024-03-23T13:03:50;17.70;50.90
2783;DHT22;1399;47.072;15.452;2024-03-23T13:06:16;17.70;50.90
2783;DHT22;1399;47.072;15.452;2024-03-23T13:08:47;17.70;50.90
2783;DHT22;1399;47.072;15.452;2024-03-23T13:11:15;17.70;50.90
2783;DHT22;1399;47.072;15.452;2024-03-23T13:13:41;17.70;50.90
2783;DHT22;1399;47.072;15.452;2024-03-23T13:16:07;17.70;50.80
2783;DHT22;1399;47.072;15.452;2024-03-23T13:18:33;17.70;50.80
2783;DHT22;1399;47.072;15.452;2024-03-23T13:20:59;17.70;50.80
2783;DHT22;1399;47.072;15.452;2024-03-23T13:23:25;17.70;50.70
2783;DHT22;1399;47.072;15.452;2024-03-23T13:25:52;17.70;50.70
2783;DHT22;1399;47.072;15.452;2024-03-23T13:28:19;17.80;50.70
2783;DHT22;1399;47.072;15.452;2024-03-23T13:30:51;17.80;50.60
2783;DHT22;1399;47.072;15.452;2024-03-23T13:33:17;17.70;50.40
2783;DHT22;1399;47.072;15.452;2024-03-23T13:35:53;17.80;50.40
2783;DHT22;1399;47.072;15.452;2024-03-23T13:38:20;17.80;50.20
2783;DHT22;1399;47.072;15.452;2024-03-23T13:40:57;17.80;50.00
2783;DHT22;1399;47.072;15.452;2024-03-23T13:43:24;17.90;50.00
2783;DHT22;1399;47.072;15.452;2024-03-23T13:45:54;17.90;50.00
2783;DHT22;1399;47.072;15.452;2024-03-23T13:48:22;17.90;50.20
2783;DHT22;1399;47.072;15.452;2024-03-23T13:50:56;17.90;50.20
2783;DHT22;1399;47.072;15.452;2024-03-23T13:53:22;18.00;50.30
2783;DHT22;1399;47.072;15.452;2024-03-23T13:55:49;18.00;50.30
2783;DHT22;1399;47.072;15.452;2024-03-23T13:58:16;18.00;50.20
2783;DHT22;1399;47.072;15.452;2024-03-23T14:00:42;18.00;50.10
2783;DHT22;1399;47.072;15.452;2024-03-23T14:03:11;18.00;50.20
2783;DHT22;1399;47.072;15.452;2024-03-23T14:05:37;18.00;50.20
2783;DHT22;1399;47.072;15.452;2024-03-23T14:08:06;18.00;50.40
2783;DHT22;1399;47.072;15.452;2024-03-23T14:10:32;18.00;50.40
2783;DHT22;1399;47.072;15.452;2024-03-23T14:12:58;18.10;50.40
2783;DHT22;1399;47.072;15.452;2024-03-23T14:15:27;18.10;50.70
2783;DHT22;1399;47.072;15.452;2024-03-23T14:17:53;18.20;50.90
2783;DHT22;1399;47.072;15.452;2024-03-23T14:20:21;18.20;50.70
2783;DHT22;1399;47.072;15.452;2024-03-23T14:22:47;18.30;50.80
2783;DHT22;1399;47.072;15.452;2024-03-23T14:25:13;18.30;50.70
2783;DHT22;1399;47.072;15.452;2024-03-23T14:27:39;18.30;51.00
2783;DHT22;1399;47.072;15.452;2024-03-23T14:30:06;18.30;50.90
2783;DHT22;1399;47.072;15.452;2024-03-23T14:32:32;18.30;51.10
2783;DHT22;1399;47.072;15.452;2024-03-23T14:35:04;18.30;51.10
2783;DHT22;1399;47.072;15.452;2024-03-23T14:37:30;18.30;51.20
2783;DHT22;1399;47.072;15.452;2024-03-23T14:39:56;18.30;51.10
2783;DHT22;1399;47.072;15.452;2024-03-23T14:42:23;18.30;51.10
2783;DHT22;1399;47.072;15.452;2024-03-23T14:44:50;18.30;51.10
2783;DHT22;1399;47.072;15.452;2024-03-23T14:47:17;18.40;51.20
2783;DHT22;1399;47.072;15.452;2024-03-23T14:49:44;18.40;51.20
2783;DHT22;1399;47.072;15.452;2024-03-23T14:52:19;18.40;51.60
2783;DHT22;1399;47.072;15.452;2024-03-23T14:54:46;18.30;51.50
2783;DHT22;1399;47.072;15.452;2024-03-23T14:57:12;18.30;51.50
2783;DHT22;1399;47.072;15.452;2024-03-23T14:59:38;18.30;51.60
2783;DHT22;1399;47.072;15.452;2024-03-23T15:02:05;18.30;51.50
2783;DHT22;1399;47.072;15.452;2024-03-23T15:04:31;18.30;51.90
2783;DHT22;1399;47.072;15.452;2024-03-23T15:06:57;18.30;51.60
2783;DHT22;1399;47.072;15.452;2024-03-23T15:09:23;18.30;51.80
2783;DHT22;1399;47.072;15.452;2024-03-23T15:11:48;18.30;51.90
2783;DHT22;1399;47.072;15.452;2024-03-23T15:14:14;18.30;51.80
2783;DHT22;1399;47.072;15.452;2024-03-23T15:16:40;18.30;51.70
2783;DHT22;1399;47.072;15.452;2024-03-23T15:19:08;18.30;51.50
2783;DHT22;1399;47.072;15.452;2024-03-23T15:21:33;18.20;51.60
2783;DHT22;1399;47.072;15.452;2024-03-23T15:24:00;18.20;50.60
2783;DHT22;1399;47.072;15.452;2024-03-23T15:26:25;18.20;49.60
2783;DHT22;1399;47.072;15.452;2024-03-23T15:28:51;18.20;48.80
2783;DHT22;1399;47.072;15.452;2024-03-23T15:31:23;18.10;47.80
2783;DHT22;1399;47.072;15.452;2024-03-23T15:33:49;18.10;46.90
2783;DHT22;1399;47.072;15.452;2024-03-23T15:36:15;18.10;46.30
2783;DHT22;1399;47.072;15.452;2024-03-23T15:38:42;18.00;45.80
2783;DHT22;1399;47.072;15.452;2024-03-23T15:41:09;18.00;45.50
2783;DHT22;1399;47.072;15.452;2024-03-23T15:43:35;17.90;45.10
2783;DHT22;1399;47.072;15.452;2024-03-23T15:46:03;17.80;44.60
2783;DHT22;1399;47.072;15.452;2024-03-23T15:48:29;17.80;44.30
2783;DHT22;1399;47.072;15.452;2024-03-23T15:50:57;17.70;43.90
2783;DHT22;1399;47.072;15.452;2024-03-23T15:53:24;17.60;43.50
2783;DHT22;1399;47.072;15.452;2024-03-23T15:56:00;17.50;43.20
2783;DHT22;1399;47.072;15.452;2024-03-23T15:58:27;17.50;43.10
2783;DHT22;1399;47.072;15.452;2024-03-23T16:01:04;17.40;42.90
2783;DHT22;1399;47.072;15.452;2024-03-23T16:03:31;17.30;42.70
2783;DHT22;1399;47.072;15.452;2024-03-23T16:06:04;17.20;42.40
2783;DHT22;1399;47.072;15.452;2024-03-23T16:08:30;17.10;42.20
2783;DHT22;1399;47.072;15.452;2024-03-23T16:11:04;17.00;42.20
2783;DHT22;1399;47.072;15.452;2024-03-23T16:13:31;16.90;42.40
2783;DHT22;1399;47.072;15.452;2024-03-23T16:16:01;16.70;42.70
2783;DHT22;1399;47.072;15.452;2024-03-23T16:18:34;16.60;43.20
2783;DHT22;1399;47.072;15.452;2024-03-23T16:21:02;16.40;43.50
2783;DHT22;1399;47.072;15.452;2024-03-23T16:23:28;16.30;43.90
2783;DHT22;1399;47.072;15.452;2024-03-23T16:25:55;16.20;44.30
2783;DHT22;1399;47.072;15.452;2024-03-23T16:28:47;16.00;44.80
2783;DHT22;1399;47.072;15.452;2024-03-23T16:31:14;15.90;45.40
2783;DHT22;1399;47.072;15.452;2024-03-23T16:33:41;15.70;45.80
2783;DHT22;1399;47.072;15.452;2024-03-23T16:36:10;15.60;46.00
2783;DHT22;1399;47.072;15.452;2024-03-23T16:38:41;15.50;46.20
2783;DHT22;1399;47.072;15.452;2024-03-23T16:41:08;15.40;46.40
2783;DHT22;1399;47.072;15.452;2024-03-23T16:43:35;15.30;46.50
2783;DHT22;1399;47.072;15.452;2024-03-23T16:46:05;15.20;46.70
2783;DHT22;1399;47.072;15.452;2024-03-23T16:48:31;15.20;47.00
2783;DHT22;1399;47.072;15.452;2024-03-23T16:50:58;15.10;47.00
2783;DHT22;1399;47.072;15.452;2024-03-23T16:53:24;15.00;47.10